Terminal Aerodrome Forecast
Issued by NWS

Home | Current Version | Previous Version | Text Only | Print | Product List | Glossary On
Versions: 1 2 3 4 5 6 7 8 9 10 11 12 13 14 15 16 17 18 19 20
000
FTUS43 KFGF 290700 AAA
TAFBJI
TAF AMD
KBJI 290720Z 2907/3006 12008KT P6SM BKN015
     FM291100 13006KT P6SM OVC025
      TEMPO 2911/2913 3SM -FZDZSN OVC015
     FM291600 17007KT P6SM BKN025=

USA.gov is the U.S. government's official web portal to all federal, state and local government web resources and services.